Leamington, Ontario

4:50 PM EST on February 14, 2016 (GMT -0500)
Kingsville Lakeshore | | Change Station
CLOSE
Current Station
Personal Weather Station
Location: Kingsville, ON
Elevation: 614 ft
Nearby Weather Stations

Elev 614 ft 42.03 °N, 82.70 °W | Updated 9 seconds ago

Clear
Clear
17.1 °F
Feels Like 4 °F
N
12.6
Wind Variable Wind from SE
Gusts 15.9 mph

Today
High -- | Low -- °F
--% Chance of Precip.
Yesterday
High -- | Low -- °F
Precip. -- in
Pressure 30.31 in
Visibility 10.0 miles
Clouds Clear
Windchill 4 °F
Dew Point 9 °F
Humidity 70%
Rainfall 0.00 in
Snow Depth Not available.
7:27 AM 6:01 PM
Waxing Crescent, 45% visible
METAR KPCW 142141Z AUTO 11008KT 10SM CLR M08/M17 A3031 RMK AO2 $
Pressure 30.31 in
Visibility 10.0 miles
Clouds Clear
Windchill 4 °F
Dew Point 9 °F
Humidity 70%
Rainfall 0.00 in
Snow Depth Not available.
7:27 AM 6:01 PM
Waxing Crescent, 45% visible
METAR KPCW 142141Z AUTO 11008KT 10SM CLR M08/M17 A3031 RMK AO2 $

10-Day Weather Forecast

Almanac

Astronomy

Feb. 14, 2016 Rise Set
Actual Time
Civil Twilight
Nautical Twilight
Astronomical Twilight
Moon
Length of Visible Light
Length of Day
Tomorrow will be .
, % of the Moon is Illuminated

Today's Extremes

Country Highs Country Lows

Community

WunderPhotos

Upload Photos

1,892,890 photos uploaded!

WunderBlog® & News

Nearby

Air Quality

  Air Quality AQ Index Pollutant
Not available.

Snow Depth

Station Depth Elevation

Earthquake Activity

City Distance Mag. Time & Date
Minimum magnitude displayed is 2.5.

Coastal Water Temperatures

Place Temperature

Stations

Nearby Weather Stations

Station Location Temp. Windchill Dew Point Humidity Wind Precip. Elev Updated Type
                   

Watches & Warnings

There are currently no watches in effect.